หน้าหลัก
METAR-TAF:

METAR-TAF

ท่าอากาศยาน :

Minna, ไนจีเรีย

ละติจูด: 9-37N, ลองจิจูด: 6-32E, ความสูง: 260 ม.

การสังเกตสภาพอากาศปัจจุบัน

รายงานได้ทำขึ้นเมื่อ 39 นาทีที่แล้ว ณ เวลา 18:00 UTC
ลม 4 นอตจากตะวันออก
อุณหภูมิ 25°C
ความชื้น 94%
ความกดอากาศ 1012 hPa
ทัศนวิสัย 10 กม. หรือมากกว่า
มีเมฆน้อยที่ความสูง 1000 ฟุต

METAR: DNMN 201800Z 10004KT 9999 FEW010 25/24 Q1012

เวลา: 19:39 (18:39 UTC)


TAF: หายไป

สังเกตการณ์สภาพอากาศและพยากรณ์อากาศของสนามบินมากกว่า 4000 แห่ง (รายงาน METAR และ TAF).

สถานีที่ดูได้จะแสดงไว้ด้วยจุดสีเหลืองและสีแดงบนแผนที่.

เลื่อนเมาส์ไปเหนือจุดเพื่อดูชื่อสถานี.

แล้วคลิกเพื่อดูสังเกตการณ์และการพยากรณ์สภาพอากาศ.

ในการเปลี่ยนแผนที่: คลิกที่ปุ่มสีเขียวที่มีกากบาทสีดำเพื่อซูมเข้า; ที่ปุ่มสีเขียวที่มีขีดเพื่อซูมออก; หรือที่ลูกศรสีเขียวเพื่อไปยังแผนที่ที่อยู่ติดกัน.


METAR-TAF: